°C

Conditions at local time : on    Forecast:

Nearby METAR Reports

EGKA - Shoreham-By-Sea, United Kingdom
Distance from station: ENE 4mi, 6km
Updated: Fri, 23-Aug-2019 7:50pm BST
NOT Current
Clear
Clear
 Wind from calm
Wind: Calm
Temperature: 18°C
Dew Point: 13°C
Humidity: 73%
Barometer: 1022 hPa
Summary: Clear
Visibility: greater than 7 miles , 10 km
2019/08/23 18:50 EGKA 231850Z 00000KT CAVOK 18/13 Q1022
EGKK - London/Gatwick A, United Kingdom
Distance from station: NNE 24mi, 39km
Updated: Sat, 24-Aug-2019 3:20am BST
Mist, Partly cloudy
Mist, Partly cloudy
 Wind from E
Wind: E 2 mph , 4 km/h
Temperature: 13°C
Dew Point: 13°C
Humidity: 100%
Barometer: 1021 hPa
Summary: Mist
Clouds: Partly Cloudy
Visibility: 3 miles , 5 km
2019/08/24 02:20 EGKK 240220Z 08002KT 5000 BR NSC 13/13 Q1021
 
EGLF - Farnborough, United Kingdom
Distance from station: NNW 37mi, 59km
Updated: Sat, 24-Aug-2019 3:20am BST
Clear
Clear
 Wind from SSW
Wind: SSW 2 mph , 4 km/h
Temperature: 10°C
Dew Point: 9°C
Humidity: 94%
Barometer: 1021 hPa
Clouds: Clear
Visibility: 6 miles , 10 km
2019/08/24 02:20 EGLF 240220Z AUTO 21002KT 9999 NCD 10/09 Q1021
EGVO - Odiham Raf, United Kingdom
Distance from station: NW 38mi, 61km
Updated: Sat, 24-Aug-2019 2:50am BST
Clear
Clear
 Wind from ESE
Wind: ESE 7 mph , 11 km/h
Temperature: 11°C
Dew Point: 10°C
Humidity: 94%
Barometer: 1021 hPa
Clouds: Clear
Visibility: 6 miles , 10 km
2019/08/24 01:50 EGVO 240150Z AUTO 11006KT 9999 NCD 11/10 Q1021